sensor_id;sensor_type;location;lat;lon;timestamp;P1;durP1;ratioP1;P2;durP2;ratioP2
24903;SDS011;12960;50.322;11.124;2022-07-18T00:00:51;4.32;;;1.60;;
24903;SDS011;12960;50.322;11.124;2022-07-18T00:01:53;2.85;;;1.05;;
24903;SDS011;12960;50.322;11.124;2022-07-18T00:02:59;4.00;;;1.42;;
24903;SDS011;12960;50.322;11.124;2022-07-18T00:04:00;3.35;;;1.60;;
24903;SDS011;12960;50.322;11.124;2022-07-18T00:05:02;3.80;;;1.33;;
24903;SDS011;12960;50.322;11.124;2022-07-18T00:06:07;3.63;;;1.52;;
24903;SDS011;12960;50.322;11.124;2022-07-18T00:07:08;3.42;;;1.40;;
24903;SDS011;12960;50.322;11.124;2022-07-18T00:08:11;4.47;;;1.48;;
24903;SDS011;12960;50.322;11.124;2022-07-18T00:09:12;5.72;;;1.70;;
24903;SDS011;12960;50.322;11.124;2022-07-18T00:10:13;2.83;;;1.13;;
24903;SDS011;12960;50.322;11.124;2022-07-18T00:11:14;3.10;;;1.98;;
24903;SDS011;12960;50.322;11.124;2022-07-18T00:12:15;3.10;;;1.65;;
24903;SDS011;12960;50.322;11.124;2022-07-18T00:13:17;3.92;;;1.33;;
24903;SDS011;12960;50.322;11.124;2022-07-18T00:14:18;3.22;;;1.80;;
24903;SDS011;12960;50.322;11.124;2022-07-18T00:15:20;3.95;;;1.75;;
24903;SDS011;12960;50.322;11.124;2022-07-18T00:16:24;4.13;;;1.85;;
24903;SDS011;12960;50.322;11.124;2022-07-18T00:17:25;3.28;;;1.77;;
24903;SDS011;12960;50.322;11.124;2022-07-18T00:18:26;3.22;;;1.50;;
24903;SDS011;12960;50.322;11.124;2022-07-18T00:19:27;3.15;;;1.65;;
24903;SDS011;12960;50.322;11.124;2022-07-18T00:20:29;4.28;;;1.63;;
24903;SDS011;12960;50.322;11.124;2022-07-18T00:21:34;3.15;;;1.40;;
24903;SDS011;12960;50.322;11.124;2022-07-18T00:22:35;6.38;;;1.95;;
24903;SDS011;12960;50.322;11.124;2022-07-18T00:23:39;4.30;;;1.58;;
24903;SDS011;12960;50.322;11.124;2022-07-18T00:24:40;4.22;;;1.40;;
24903;SDS011;12960;50.322;11.124;2022-07-18T00:25:41;1.80;;;1.50;;
24903;SDS011;12960;50.322;11.124;2022-07-18T00:26:45;3.95;;;2.05;;
24903;SDS011;12960;50.322;11.124;2022-07-18T00:27:49;4.63;;;1.80;;
24903;SDS011;12960;50.322;11.124;2022-07-18T00:28:52;4.90;;;1.73;;
24903;SDS011;12960;50.322;11.124;2022-07-18T00:29:54;3.00;;;1.70;;
24903;SDS011;12960;50.322;11.124;2022-07-18T00:30:55;2.30;;;1.30;;
24903;SDS011;12960;50.322;11.124;2022-07-18T00:31:56;5.35;;;1.85;;
24903;SDS011;12960;50.322;11.124;2022-07-18T00:33:00;1.90;;;1.58;;
24903;SDS011;12960;50.322;11.124;2022-07-18T00:34:01;8.43;;;1.90;;
24903;SDS011;12960;50.322;11.124;2022-07-18T00:35:03;3.42;;;1.40;;
24903;SDS011;12960;50.322;11.124;2022-07-18T00:36:04;3.95;;;1.48;;
24903;SDS011;12960;50.322;11.124;2022-07-18T00:37:05;10.98;;;1.75;;
24903;SDS011;12960;50.322;11.124;2022-07-18T00:38:07;4.93;;;1.52;;
24903;SDS011;12960;50.322;11.124;2022-07-18T00:39:08;3.90;;;1.52;;
24903;SDS011;12960;50.322;11.124;2022-07-18T00:40:09;5.93;;;1.67;;
24903;SDS011;12960;50.322;11.124;2022-07-18T00:41:16;2.25;;;1.52;;
24903;SDS011;12960;50.322;11.124;2022-07-18T00:42:17;4.95;;;1.60;;
24903;SDS011;12960;50.322;11.124;2022-07-18T00:43:23;2.53;;;1.40;;
24903;SDS011;12960;50.322;11.124;2022-07-18T00:44:25;2.45;;;1.60;;
24903;SDS011;12960;50.322;11.124;2022-07-18T00:45:28;2.92;;;1.40;;
24903;SDS011;12960;50.322;11.124;2022-07-18T00:46:30;3.20;;;1.60;;
24903;SDS011;12960;50.322;11.124;2022-07-18T00:47:31;3.50;;;1.50;;
24903;SDS011;12960;50.322;11.124;2022-07-18T00:48:32;8.38;;;2.20;;
24903;SDS011;12960;50.322;11.124;2022-07-18T00:49:39;4.88;;;1.75;;
24903;SDS011;12960;50.322;11.124;2022-07-18T00:50:40;5.18;;;1.73;;
24903;SDS011;12960;50.322;11.124;2022-07-18T00:51:42;4.25;;;1.50;;
24903;SDS011;12960;50.322;11.124;2022-07-18T00:52:43;4.75;;;2.00;;
24903;SDS011;12960;50.322;11.124;2022-07-18T00:53:45;4.15;;;1.52;;
24903;SDS011;12960;50.322;11.124;2022-07-18T00:54:46;4.30;;;1.88;;
24903;SDS011;12960;50.322;11.124;2022-07-18T00:55:47;4.15;;;1.60;;
24903;SDS011;12960;50.322;11.124;2022-07-18T00:56:49;4.38;;;1.20;;
24903;SDS011;12960;50.322;11.124;2022-07-18T00:57:53;2.13;;;1.30;;
24903;SDS011;12960;50.322;11.124;2022-07-18T00:58:56;5.35;;;1.40;;
24903;SDS011;12960;50.322;11.124;2022-07-18T00:59:57;4.82;;;1.60;;
24903;SDS011;12960;50.322;11.124;2022-07-18T01:01:17;4.57;;;1.55;;
24903;SDS011;12960;50.322;11.124;2022-07-18T01:02:37;8.52;;;1.67;;
24903;SDS011;12960;50.322;11.124;2022-07-18T01:03:40;4.43;;;1.63;;
24903;SDS011;12960;50.322;11.124;2022-07-18T01:04:41;3.47;;;1.80;;
24903;SDS011;12960;50.322;11.124;2022-07-18T01:05:42;5.75;;;1.90;;
24903;SDS011;12960;50.322;11.124;2022-07-18T01:06:43;6.15;;;1.63;;
24903;SDS011;12960;50.322;11.124;2022-07-18T01:07:45;4.60;;;1.83;;
24903;SDS011;12960;50.322;11.124;2022-07-18T01:08:49;3.38;;;1.48;;
24903;SDS011;12960;50.322;11.124;2022-07-18T01:09:50;3.03;;;1.52;;
24903;SDS011;12960;50.322;11.124;2022-07-18T01:10:51;3.42;;;1.77;;
24903;SDS011;12960;50.322;11.124;2022-07-18T01:11:54;4.45;;;1.73;;
24903;SDS011;12960;50.322;11.124;2022-07-18T01:12:55;6.93;;;1.85;;
24903;SDS011;12960;50.322;11.124;2022-07-18T01:13:56;6.53;;;2.10;;
24903;SDS011;12960;50.322;11.124;2022-07-18T01:14:58;3.47;;;1.50;;
24903;SDS011;12960;50.322;11.124;2022-07-18T01:15:59;4.55;;;1.83;;
24903;SDS011;12960;50.322;11.124;2022-07-18T01:17:00;3.15;;;2.10;;
24903;SDS011;12960;50.322;11.124;2022-07-18T01:18:01;5.85;;;1.98;;
24903;SDS011;12960;50.322;11.124;2022-07-18T01:19:02;3.17;;;1.30;;
24903;SDS011;12960;50.322;11.124;2022-07-18T01:20:04;4.18;;;1.83;;
24903;SDS011;12960;50.322;11.124;2022-07-18T01:21:06;4.40;;;1.92;;
24903;SDS011;12960;50.322;11.124;2022-07-18T01:22:07;5.50;;;1.58;;
24903;SDS011;12960;50.322;11.124;2022-07-18T01:23:08;9.82;;;2.13;;
24903;SDS011;12960;50.322;11.124;2022-07-18T01:24:09;2.97;;;1.75;;
24903;SDS011;12960;50.322;11.124;2022-07-18T01:25:10;4.25;;;1.80;;
24903;SDS011;12960;50.322;11.124;2022-07-18T01:26:13;5.60;;;1.60;;
24903;SDS011;12960;50.322;11.124;2022-07-18T01:27:15;5.15;;;1.80;;
24903;SDS011;12960;50.322;11.124;2022-07-18T01:28:17;8.55;;;1.98;;
24903;SDS011;12960;50.322;11.124;2022-07-18T01:29:18;17.02;;;2.20;;
24903;SDS011;12960;50.322;11.124;2022-07-18T01:30:23;4.20;;;1.70;;
24903;SDS011;12960;50.322;11.124;2022-07-18T01:31:24;2.42;;;1.60;;
24903;SDS011;12960;50.322;11.124;2022-07-18T01:32:26;4.60;;;1.77;;
24903;SDS011;12960;50.322;11.124;2022-07-18T01:33:31;6.20;;;1.58;;
24903;SDS011;12960;50.322;11.124;2022-07-18T01:34:33;4.60;;;2.17;;
24903;SDS011;12960;50.322;11.124;2022-07-18T01:35:37;7.97;;;2.13;;
24903;SDS011;12960;50.322;11.124;2022-07-18T01:36:38;5.78;;;1.85;;
24903;SDS011;12960;50.322;11.124;2022-07-18T01:37:39;3.00;;;1.60;;
24903;SDS011;12960;50.322;11.124;2022-07-18T01:38:40;3.38;;;2.00;;
24903;SDS011;12960;50.322;11.124;2022-07-18T01:39:42;3.75;;;1.70;;
24903;SDS011;12960;50.322;11.124;2022-07-18T01:40:44;4.80;;;1.88;;
24903;SDS011;12960;50.322;11.124;2022-07-18T01:41:58;3.83;;;1.60;;
24903;SDS011;12960;50.322;11.124;2022-07-18T01:43:01;7.45;;;1.63;;
24903;SDS011;12960;50.322;11.124;2022-07-18T01:44:02;5.75;;;1.90;;
24903;SDS011;12960;50.322;11.124;2022-07-18T01:45:03;5.28;;;1.52;;
24903;SDS011;12960;50.322;11.124;2022-07-18T01:46:04;4.93;;;2.00;;
24903;SDS011;12960;50.322;11.124;2022-07-18T01:47:06;5.32;;;1.63;;
24903;SDS011;12960;50.322;11.124;2022-07-18T01:48:09;5.53;;;1.40;;
24903;SDS011;12960;50.322;11.124;2022-07-18T01:49:10;4.82;;;1.75;;
24903;SDS011;12960;50.322;11.124;2022-07-18T01:50:12;3.50;;;1.30;;
24903;SDS011;12960;50.322;11.124;2022-07-18T01:51:13;5.10;;;1.70;;
24903;SDS011;12960;50.322;11.124;2022-07-18T01:52:14;137.35;;;81.05;;
24903;SDS011;12960;50.322;11.124;2022-07-18T01:53:15;77.68;;;41.35;;
24903;SDS011;12960;50.322;11.124;2022-07-18T01:54:20;104.28;;;54.83;;
24903;SDS011;12960;50.322;11.124;2022-07-18T01:55:25;150.10;;;76.43;;
24903;SDS011;12960;50.322;11.124;2022-07-18T01:56:26;174.95;;;94.18;;
24903;SDS011;12960;50.322;11.124;2022-07-18T01:57:27;58.47;;;31.92;;
24903;SDS011;12960;50.322;11.124;2022-07-18T01:58:28;14.50;;;8.23;;
24903;SDS011;12960;50.322;11.124;2022-07-18T01:59:30;4.35;;;2.63;;
24903;SDS011;12960;50.322;11.124;2022-07-18T02:00:31;23.33;;;12.07;;
24903;SDS011;12960;50.322;11.124;2022-07-18T02:01:32;6.72;;;3.72;;
24903;SDS011;12960;50.322;11.124;2022-07-18T02:02:33;3.55;;;2.28;;
24903;SDS011;12960;50.322;11.124;2022-07-18T02:03:34;5.75;;;1.70;;
24903;SDS011;12960;50.322;11.124;2022-07-18T02:04:36;4.65;;;2.03;;
24903;SDS011;12960;50.322;11.124;2022-07-18T02:05:55;6.35;;;2.10;;
24903;SDS011;12960;50.322;11.124;2022-07-18T02:06:56;7.35;;;3.83;;
24903;SDS011;12960;50.322;11.124;2022-07-18T02:07:57;5.50;;;2.20;;
24903;SDS011;12960;50.322;11.124;2022-07-18T02:08:58;5.15;;;2.97;;
24903;SDS011;12960;50.322;11.124;2022-07-18T02:10:00;7.60;;;2.75;;
24903;SDS011;12960;50.322;11.124;2022-07-18T02:11:02;36.90;;;17.23;;
24903;SDS011;12960;50.322;11.124;2022-07-18T02:12:03;50.50;;;23.65;;
24903;SDS011;12960;50.322;11.124;2022-07-18T02:13:05;127.00;;;60.33;;
24903;SDS011;12960;50.322;11.124;2022-07-18T02:14:06;4.35;;;2.22;;
24903;SDS011;12960;50.322;11.124;2022-07-18T02:15:07;4.93;;;2.08;;
24903;SDS011;12960;50.322;11.124;2022-07-18T02:16:10;5.03;;;2.25;;
24903;SDS011;12960;50.322;11.124;2022-07-18T02:17:11;5.63;;;1.73;;
24903;SDS011;12960;50.322;11.124;2022-07-18T02:18:12;5.18;;;2.15;;
24903;SDS011;12960;50.322;11.124;2022-07-18T02:19:13;7.03;;;2.33;;
24903;SDS011;12960;50.322;11.124;2022-07-18T02:20:14;6.07;;;2.00;;
24903;SDS011;12960;50.322;11.124;2022-07-18T02:21:15;3.22;;;2.00;;
24903;SDS011;12960;50.322;11.124;2022-07-18T02:22:16;3.53;;;1.85;;
24903;SDS011;12960;50.322;11.124;2022-07-18T02:23:17;7.60;;;1.60;;
24903;SDS011;12960;50.322;11.124;2022-07-18T02:24:18;3.92;;;1.77;;
24903;SDS011;12960;50.322;11.124;2022-07-18T02:25:20;6.32;;;1.90;;
24903;SDS011;12960;50.322;11.124;2022-07-18T02:26:21;4.75;;;2.03;;
24903;SDS011;12960;50.322;11.124;2022-07-18T02:27:22;4.70;;;1.83;;
24903;SDS011;12960;50.322;11.124;2022-07-18T02:28:23;3.88;;;1.80;;
24903;SDS011;12960;50.322;11.124;2022-07-18T02:29:24;6.60;;;2.20;;
24903;SDS011;12960;50.322;11.124;2022-07-18T02:30:26;4.90;;;2.10;;
24903;SDS011;12960;50.322;11.124;2022-07-18T02:31:27;5.32;;;1.85;;
24903;SDS011;12960;50.322;11.124;2022-07-18T02:32:28;4.60;;;2.22;;
24903;SDS011;12960;50.322;11.124;2022-07-18T02:33:29;46.72;;;20.85;;
24903;SDS011;12960;50.322;11.124;2022-07-18T02:34:30;6.20;;;2.40;;
24903;SDS011;12960;50.322;11.124;2022-07-18T02:35:31;5.47;;;2.20;;
24903;SDS011;12960;50.322;11.124;2022-07-18T02:36:32;15.85;;;6.00;;
24903;SDS011;12960;50.322;11.124;2022-07-18T02:37:33;11.63;;;5.93;;
24903;SDS011;12960;50.322;11.124;2022-07-18T02:38:34;13.90;;;6.40;;
24903;SDS011;12960;50.322;11.124;2022-07-18T02:39:35;14.77;;;6.93;;
24903;SDS011;12960;50.322;11.124;2022-07-18T02:40:37;11.05;;;3.78;;
24903;SDS011;12960;50.322;11.124;2022-07-18T02:41:38;8.90;;;4.28;;
24903;SDS011;12960;50.322;11.124;2022-07-18T02:42:39;4.65;;;1.88;;
24903;SDS011;12960;50.322;11.124;2022-07-18T02:43:40;8.02;;;3.63;;
24903;SDS011;12960;50.322;11.124;2022-07-18T02:44:41;6.32;;;2.50;;
24903;SDS011;12960;50.322;11.124;2022-07-18T02:45:42;8.30;;;3.55;;
24903;SDS011;12960;50.322;11.124;2022-07-18T02:46:43;3.42;;;2.00;;
24903;SDS011;12960;50.322;11.124;2022-07-18T02:47:44;23.92;;;10.57;;
24903;SDS011;12960;50.322;11.124;2022-07-18T02:48:46;6.45;;;2.80;;
24903;SDS011;12960;50.322;11.124;2022-07-18T02:49:47;7.63;;;1.95;;
24903;SDS011;12960;50.322;11.124;2022-07-18T02:50:48;4.35;;;1.92;;
24903;SDS011;12960;50.322;11.124;2022-07-18T02:51:49;10.70;;;5.90;;
24903;SDS011;12960;50.322;11.124;2022-07-18T02:52:50;97.90;;;56.83;;
24903;SDS011;12960;50.322;11.124;2022-07-18T02:53:51;10.57;;;5.72;;
24903;SDS011;12960;50.322;11.124;2022-07-18T02:54:52;27.65;;;15.68;;
24903;SDS011;12960;50.322;11.124;2022-07-18T02:55:53;24.67;;;13.18;;
24903;SDS011;12960;50.322;11.124;2022-07-18T02:56:54;36.72;;;18.50;;
24903;SDS011;12960;50.322;11.124;2022-07-18T02:57:55;30.27;;;19.23;;
24903;SDS011;12960;50.322;11.124;2022-07-18T02:58:56;20.85;;;9.98;;
24903;SDS011;12960;50.322;11.124;2022-07-18T02:59:57;16.17;;;7.80;;
24903;SDS011;12960;50.322;11.124;2022-07-18T03:00:58;13.52;;;5.97;;
24903;SDS011;12960;50.322;11.124;2022-07-18T03:01:59;4.88;;;3.42;;
24903;SDS011;12960;50.322;11.124;2022-07-18T03:03:01;14.75;;;4.82;;
24903;SDS011;12960;50.322;11.124;2022-07-18T03:04:02;13.30;;;5.82;;
24903;SDS011;12960;50.322;11.124;2022-07-18T03:05:04;6.00;;;2.55;;
24903;SDS011;12960;50.322;11.124;2022-07-18T03:06:05;10.20;;;4.00;;
24903;SDS011;12960;50.322;11.124;2022-07-18T03:07:06;38.55;;;21.08;;
24903;SDS011;12960;50.322;11.124;2022-07-18T03:08:07;20.63;;;9.20;;
24903;SDS011;12960;50.322;11.124;2022-07-18T03:09:08;36.08;;;18.48;;
24903;SDS011;12960;50.322;11.124;2022-07-18T03:10:09;118.75;;;61.92;;
24903;SDS011;12960;50.322;11.124;2022-07-18T03:11:10;41.33;;;19.73;;
24903;SDS011;12960;50.322;11.124;2022-07-18T03:12:12;28.17;;;16.45;;
24903;SDS011;12960;50.322;11.124;2022-07-18T03:13:13;45.30;;;24.05;;
24903;SDS011;12960;50.322;11.124;2022-07-18T03:14:14;23.60;;;12.05;;
24903;SDS011;12960;50.322;11.124;2022-07-18T03:15:15;12.13;;;5.55;;
24903;SDS011;12960;50.322;11.124;2022-07-18T03:16:16;9.80;;;4.60;;
24903;SDS011;12960;50.322;11.124;2022-07-18T03:17:17;7.65;;;3.08;;
24903;SDS011;12960;50.322;11.124;2022-07-18T03:18:18;7.72;;;3.40;;
24903;SDS011;12960;50.322;11.124;2022-07-18T03:19:19;6.55;;;2.78;;
24903;SDS011;12960;50.322;11.124;2022-07-18T03:20:20;6.60;;;2.40;;
24903;SDS011;12960;50.322;11.124;2022-07-18T03:21:22;6.40;;;2.30;;
24903;SDS011;12960;50.322;11.124;2022-07-18T03:22:23;5.95;;;3.13;;
24903;SDS011;12960;50.322;11.124;2022-07-18T03:23:24;5.65;;;2.83;;
24903;SDS011;12960;50.322;11.124;2022-07-18T03:24:25;6.07;;;2.72;;
24903;SDS011;12960;50.322;11.124;2022-07-18T03:25:29;6.43;;;1.98;;
24903;SDS011;12960;50.322;11.124;2022-07-18T03:26:33;5.38;;;2.70;;
24903;SDS011;12960;50.322;11.124;2022-07-18T03:27:34;5.72;;;2.55;;
24903;SDS011;12960;50.322;11.124;2022-07-18T03:28:35;7.72;;;2.60;;
24903;SDS011;12960;50.322;11.124;2022-07-18T03:29:36;4.35;;;2.63;;
24903;SDS011;12960;50.322;11.124;2022-07-18T03:30:37;11.52;;;2.78;;
24903;SDS011;12960;50.322;11.124;2022-07-18T03:31:38;10.75;;;2.58;;
24903;SDS011;12960;50.322;11.124;2022-07-18T03:32:40;3.45;;;1.80;;
24903;SDS011;12960;50.322;11.124;2022-07-18T03:33:41;5.07;;;2.42;;
24903;SDS011;12960;50.322;11.124;2022-07-18T03:34:42;4.80;;;1.60;;
24903;SDS011;12960;50.322;11.124;2022-07-18T03:35:43;7.22;;;2.28;;
24903;SDS011;12960;50.322;11.124;2022-07-18T03:36:44;5.80;;;2.30;;
24903;SDS011;12960;50.322;11.124;2022-07-18T03:37:45;4.53;;;2.03;;
24903;SDS011;12960;50.322;11.124;2022-07-18T03:38:46;5.10;;;2.20;;
24903;SDS011;12960;50.322;11.124;2022-07-18T03:39:47;4.50;;;2.28;;
24903;SDS011;12960;50.322;11.124;2022-07-18T03:40:48;3.65;;;2.03;;
24903;SDS011;12960;50.322;11.124;2022-07-18T03:41:49;3.15;;;2.00;;
24903;SDS011;12960;50.322;11.124;2022-07-18T03:42:52;7.93;;;2.78;;
24903;SDS011;12960;50.322;11.124;2022-07-18T03:43:53;8.57;;;2.58;;
24903;SDS011;12960;50.322;11.124;2022-07-18T03:44:54;4.00;;;2.03;;
24903;SDS011;12960;50.322;11.124;2022-07-18T03:45:55;3.08;;;1.90;;
24903;SDS011;12960;50.322;11.124;2022-07-18T03:46:56;5.38;;;2.08;;
24903;SDS011;12960;50.322;11.124;2022-07-18T03:47:57;4.97;;;2.15;;
24903;SDS011;12960;50.322;11.124;2022-07-18T03:48:58;6.22;;;2.17;;
24903;SDS011;12960;50.322;11.124;2022-07-18T03:50:00;6.78;;;1.90;;
24903;SDS011;12960;50.322;11.124;2022-07-18T03:51:01;4.82;;;1.88;;
24903;SDS011;12960;50.322;11.124;2022-07-18T03:52:03;5.57;;;2.15;;
24903;SDS011;12960;50.322;11.124;2022-07-18T03:53:04;5.45;;;2.00;;
24903;SDS011;12960;50.322;11.124;2022-07-18T03:54:05;4.30;;;2.17;;
24903;SDS011;12960;50.322;11.124;2022-07-18T03:55:08;3.90;;;2.20;;
24903;SDS011;12960;50.322;11.124;2022-07-18T03:56:09;6.30;;;2.15;;
24903;SDS011;12960;50.322;11.124;2022-07-18T03:57:10;6.82;;;1.90;;
24903;SDS011;12960;50.322;11.124;2022-07-18T03:58:11;5.57;;;2.42;;
24903;SDS011;12960;50.322;11.124;2022-07-18T03:59:12;8.18;;;2.28;;
24903;SDS011;12960;50.322;11.124;2022-07-18T04:00:14;5.10;;;2.00;;
24903;SDS011;12960;50.322;11.124;2022-07-18T04:01:15;4.93;;;2.05;;
24903;SDS011;12960;50.322;11.124;2022-07-18T04:02:16;7.57;;;2.40;;
24903;SDS011;12960;50.322;11.124;2022-07-18T04:03:17;4.88;;;2.03;;
24903;SDS011;12960;50.322;11.124;2022-07-18T04:04:18;6.95;;;2.33;;
24903;SDS011;12960;50.322;11.124;2022-07-18T04:05:21;4.72;;;1.90;;
24903;SDS011;12960;50.322;11.124;2022-07-18T04:06:22;6.35;;;2.05;;
24903;SDS011;12960;50.322;11.124;2022-07-18T04:07:23;4.47;;;1.90;;
24903;SDS011;12960;50.322;11.124;2022-07-18T04:08:24;2.95;;;1.75;;
24903;SDS011;12960;50.322;11.124;2022-07-18T04:09:28;6.10;;;2.13;;
24903;SDS011;12960;50.322;11.124;2022-07-18T04:10:30;5.00;;;1.80;;
24903;SDS011;12960;50.322;11.124;2022-07-18T04:11:31;7.28;;;2.25;;
24903;SDS011;12960;50.322;11.124;2022-07-18T04:12:32;3.78;;;1.98;;
24903;SDS011;12960;50.322;11.124;2022-07-18T04:13:33;4.90;;;2.30;;
24903;SDS011;12960;50.322;11.124;2022-07-18T04:14:34;5.35;;;2.30;;
24903;SDS011;12960;50.322;11.124;2022-07-18T04:15:35;7.45;;;2.00;;
24903;SDS011;12960;50.322;11.124;2022-07-18T04:16:37;7.57;;;2.00;;
24903;SDS011;12960;50.322;11.124;2022-07-18T04:17:38;6.60;;;2.13;;
24903;SDS011;12960;50.322;11.124;2022-07-18T04:18:39;7.78;;;2.30;;
24903;SDS011;12960;50.322;11.124;2022-07-18T04:19:40;6.70;;;2.33;;
24903;SDS011;12960;50.322;11.124;2022-07-18T04:20:41;4.22;;;2.70;;
24903;SDS011;12960;50.322;11.124;2022-07-18T04:21:42;4.53;;;2.08;;
24903;SDS011;12960;50.322;11.124;2022-07-18T04:22:44;5.47;;;2.22;;
24903;SDS011;12960;50.322;11.124;2022-07-18T04:23:46;7.68;;;2.17;;
24903;SDS011;12960;50.322;11.124;2022-07-18T04:24:47;8.02;;;2.50;;
24903;SDS011;12960;50.322;11.124;2022-07-18T04:25:48;6.93;;;2.30;;
24903;SDS011;12960;50.322;11.124;2022-07-18T04:26:49;6.18;;;2.38;;
24903;SDS011;12960;50.322;11.124;2022-07-18T04:27:51;8.55;;;2.58;;
24903;SDS011;12960;50.322;11.124;2022-07-18T04:28:52;6.47;;;2.28;;
24903;SDS011;12960;50.322;11.124;2022-07-18T04:29:53;4.57;;;2.28;;
24903;SDS011;12960;50.322;11.124;2022-07-18T04:30:54;6.05;;;2.08;;
24903;SDS011;12960;50.322;11.124;2022-07-18T04:31:56;4.40;;;2.28;;
24903;SDS011;12960;50.322;11.124;2022-07-18T04:32:57;5.70;;;2.60;;
24903;SDS011;12960;50.322;11.124;2022-07-18T04:34:00;3.90;;;2.35;;
24903;SDS011;12960;50.322;11.124;2022-07-18T04:35:02;5.15;;;2.38;;
24903;SDS011;12960;50.322;11.124;2022-07-18T04:36:03;9.27;;;3.20;;
24903;SDS011;12960;50.322;11.124;2022-07-18T04:37:04;6.30;;;2.17;;
24903;SDS011;12960;50.322;11.124;2022-07-18T04:38:06;7.97;;;2.95;;
24903;SDS011;12960;50.322;11.124;2022-07-18T04:39:09;6.25;;;2.70;;
24903;SDS011;12960;50.322;11.124;2022-07-18T04:40:10;3.88;;;2.03;;
24903;SDS011;12960;50.322;11.124;2022-07-18T04:41:11;3.50;;;2.42;;
24903;SDS011;12960;50.322;11.124;2022-07-18T04:42:12;9.27;;;3.03;;
24903;SDS011;12960;50.322;11.124;2022-07-18T04:43:13;5.72;;;2.83;;
24903;SDS011;12960;50.322;11.124;2022-07-18T04:44:14;4.10;;;2.33;;
24903;SDS011;12960;50.322;11.124;2022-07-18T04:45:15;12.55;;;2.75;;
24903;SDS011;12960;50.322;11.124;2022-07-18T04:46:16;7.18;;;3.15;;
24903;SDS011;12960;50.322;11.124;2022-07-18T04:47:17;6.10;;;2.50;;
24903;SDS011;12960;50.322;11.124;2022-07-18T04:48:18;6.65;;;2.30;;
24903;SDS011;12960;50.322;11.124;2022-07-18T04:49:19;5.43;;;2.60;;
24903;SDS011;12960;50.322;11.124;2022-07-18T04:50:21;10.18;;;2.15;;
24903;SDS011;12960;50.322;11.124;2022-07-18T04:51:22;4.88;;;2.78;;
24903;SDS011;12960;50.322;11.124;2022-07-18T04:52:23;5.50;;;2.63;;
24903;SDS011;12960;50.322;11.124;2022-07-18T04:53:24;5.97;;;2.30;;
24903;SDS011;12960;50.322;11.124;2022-07-18T04:54:25;6.20;;;2.35;;
24903;SDS011;12960;50.322;11.124;2022-07-18T04:55:27;7.35;;;2.55;;
24903;SDS011;12960;50.322;11.124;2022-07-18T04:56:29;4.63;;;2.60;;
24903;SDS011;12960;50.322;11.124;2022-07-18T04:57:30;4.85;;;2.78;;
24903;SDS011;12960;50.322;11.124;2022-07-18T04:58:31;4.20;;;2.22;;
24903;SDS011;12960;50.322;11.124;2022-07-18T04:59:32;4.53;;;1.98;;
24903;SDS011;12960;50.322;11.124;2022-07-18T05:00:33;6.70;;;2.00;;
24903;SDS011;12960;50.322;11.124;2022-07-18T05:01:34;6.30;;;2.47;;
24903;SDS011;12960;50.322;11.124;2022-07-18T05:02:38;8.63;;;2.42;;
24903;SDS011;12960;50.322;11.124;2022-07-18T05:03:46;7.28;;;3.38;;
24903;SDS011;12960;50.322;11.124;2022-07-18T05:04:47;7.10;;;2.40;;
24903;SDS011;12960;50.322;11.124;2022-07-18T05:05:48;4.88;;;2.40;;
24903;SDS011;12960;50.322;11.124;2022-07-18T05:06:49;4.80;;;2.47;;
24903;SDS011;12960;50.322;11.124;2022-07-18T05:07:50;8.35;;;2.13;;
24903;SDS011;12960;50.322;11.124;2022-07-18T05:08:52;4.68;;;2.17;;
24903;SDS011;12960;50.322;11.124;2022-07-18T05:09:53;4.53;;;2.30;;
24903;SDS011;12960;50.322;11.124;2022-07-18T05:10:54;4.65;;;2.30;;
24903;SDS011;12960;50.322;11.124;2022-07-18T05:11:55;5.35;;;2.10;;
24903;SDS011;12960;50.322;11.124;2022-07-18T05:12:56;5.35;;;2.35;;
24903;SDS011;12960;50.322;11.124;2022-07-18T05:13:57;4.43;;;2.17;;
24903;SDS011;12960;50.322;11.124;2022-07-18T05:14:58;9.52;;;2.35;;
24903;SDS011;12960;50.322;11.124;2022-07-18T05:15:59;4.82;;;2.30;;
24903;SDS011;12960;50.322;11.124;2022-07-18T05:17:00;9.90;;;2.47;;
24903;SDS011;12960;50.322;11.124;2022-07-18T05:18:01;4.82;;;2.00;;
24903;SDS011;12960;50.322;11.124;2022-07-18T05:19:03;7.68;;;2.40;;
24903;SDS011;12960;50.322;11.124;2022-07-18T05:20:04;8.32;;;2.30;;
24903;SDS011;12960;50.322;11.124;2022-07-18T05:21:07;9.35;;;2.03;;
24903;SDS011;12960;50.322;11.124;2022-07-18T05:22:08;8.48;;;2.50;;
24903;SDS011;12960;50.322;11.124;2022-07-18T05:23:09;8.77;;;2.30;;
24903;SDS011;12960;50.322;11.124;2022-07-18T05:24:13;5.35;;;2.15;;
24903;SDS011;12960;50.322;11.124;2022-07-18T05:25:14;11.52;;;5.90;;
24903;SDS011;12960;50.322;11.124;2022-07-18T05:26:16;4.93;;;2.45;;
24903;SDS011;12960;50.322;11.124;2022-07-18T05:27:17;13.95;;;8.23;;
24903;SDS011;12960;50.322;11.124;2022-07-18T05:28:18;7.20;;;3.45;;
24903;SDS011;12960;50.322;11.124;2022-07-18T05:29:19;6.03;;;2.97;;
24903;SDS011;12960;50.322;11.124;2022-07-18T05:30:20;12.98;;;6.93;;
24903;SDS011;12960;50.322;11.124;2022-07-18T05:31:23;8.90;;;3.13;;
24903;SDS011;12960;50.322;11.124;2022-07-18T05:32:24;14.52;;;5.38;;
24903;SDS011;12960;50.322;11.124;2022-07-18T05:33:26;6.93;;;3.22;;
24903;SDS011;12960;50.322;11.124;2022-07-18T05:34:27;8.27;;;3.63;;
24903;SDS011;12960;50.322;11.124;2022-07-18T05:35:28;6.10;;;2.35;;
24903;SDS011;12960;50.322;11.124;2022-07-18T05:36:29;8.57;;;2.47;;
24903;SDS011;12960;50.322;11.124;2022-07-18T05:37:30;5.95;;;2.80;;
24903;SDS011;12960;50.322;11.124;2022-07-18T05:38:31;8.77;;;2.83;;
24903;SDS011;12960;50.322;11.124;2022-07-18T05:39:32;5.70;;;2.33;;
24903;SDS011;12960;50.322;11.124;2022-07-18T05:40:33;7.95;;;2.72;;
24903;SDS011;12960;50.322;11.124;2022-07-18T05:41:34;6.70;;;2.40;;
24903;SDS011;12960;50.322;11.124;2022-07-18T05:42:35;6.13;;;2.28;;
24903;SDS011;12960;50.322;11.124;2022-07-18T05:43:37;7.30;;;2.20;;
24903;SDS011;12960;50.322;11.124;2022-07-18T05:44:38;5.47;;;1.90;;
24903;SDS011;12960;50.322;11.124;2022-07-18T05:45:39;7.07;;;2.70;;
24903;SDS011;12960;50.322;11.124;2022-07-18T05:46:40;3.75;;;1.90;;
24903;SDS011;12960;50.322;11.124;2022-07-18T05:47:41;8.27;;;2.08;;
24903;SDS011;12960;50.322;11.124;2022-07-18T05:48:42;4.50;;;2.30;;
24903;SDS011;12960;50.322;11.124;2022-07-18T05:49:43;5.03;;;2.20;;
24903;SDS011;12960;50.322;11.124;2022-07-18T05:50:44;6.57;;;1.98;;
24903;SDS011;12960;50.322;11.124;2022-07-18T05:51:45;4.40;;;2.03;;
24903;SDS011;12960;50.322;11.124;2022-07-18T05:52:46;6.85;;;2.72;;
24903;SDS011;12960;50.322;11.124;2022-07-18T05:53:48;4.85;;;2.10;;
24903;SDS011;12960;50.322;11.124;2022-07-18T05:54:49;6.15;;;2.25;;
24903;SDS011;12960;50.322;11.124;2022-07-18T05:55:50;6.90;;;2.25;;
24903;SDS011;12960;50.322;11.124;2022-07-18T05:56:51;8.55;;;2.28;;
24903;SDS011;12960;50.322;11.124;2022-07-18T05:57:53;8.32;;;2.72;;
24903;SDS011;12960;50.322;11.124;2022-07-18T05:58:54;5.82;;;2.28;;
24903;SDS011;12960;50.322;11.124;2022-07-18T05:59:55;5.30;;;2.08;;
24903;SDS011;12960;50.322;11.124;2022-07-18T06:00:56;5.00;;;2.35;;
24903;SDS011;12960;50.322;11.124;2022-07-18T06:01:57;6.72;;;2.28;;
24903;SDS011;12960;50.322;11.124;2022-07-18T06:02:58;9.27;;;2.53;;
24903;SDS011;12960;50.322;11.124;2022-07-18T06:04:00;2.78;;;1.90;;
24903;SDS011;12960;50.322;11.124;2022-07-18T06:05:02;3.63;;;1.98;;